Lake Country Regional Airport
KW63 : rendu visible

Aérodrome :











RETROUVEZ-NOUS SUR...

 
LOGIN :

S'inscrire | Disclaimer

   EN    FR    IT 

 









Légende :    VFR   VFR Marginal   IFR   IFR Intensif   IFR Très Intensif
Visi : 
Plafond : 
>= 8 km
>= 3000ft
5 à 8 km
1000 à 3000 ft
1500m à 5 km
500 à 1000 ft
800 à 1500m
200 à 500 ft
< 800m
< 200 ft
Symboles :   Orages  Brouillard  Fortes neiges  Fortes précipitations  Vent > 20 kt






- Altitude de l'aérodrome : 421 ft


KW63 - Lake Country Regional

DERNIER METAR :
  • 221215Z AUTO 21005KT 10SM SCT070 BKN090 BKN110 10/06 A2999 RMK AO1

METARs EXPIRÉS :
  • 221155Z AUTO 20006KT 10SM SCT070 BKN080 BKN110 10/05 A2999 RMK AO1
  • 221135Z AUTO 21006KT 10SM BKN090 OVC110 10/05 A2999 RMK AO1
  • 221115Z AUTO 20006KT 10SM SCT080 BKN090 10/05 A2999 RMK AO1
  • 221055Z AUTO 20005KT 10SM BKN080 OVC090 10/05 A3000 RMK AO1
  • 221035Z AUTO 21006KT 10SM OVC070 10/05 A3000 RMK AO1
  • 221015Z AUTO 20006KT 10SM SCT060 OVC070 10/05 A3000 RMK AO1
  • 220955Z AUTO 21005KT 10SM BKN060 OVC070 10/05 A3001 RMK AO1
  • 220935Z AUTO 21005KT 10SM BKN060 OVC090 10/05 A3001 RMK AO1

TAF N/A



MET'MAP, la Météo Aéronautique d'un coup d'oeil ! - Copyright ORBIFLY Décembre 2007 - Disclaimer

ORBIFLY MET'MAP TEAM :

Programmation & Développement : Alexandra Zaïnal
Conception & Développement : Baudouin d'Aumeries
Co-Programmation & Développement : Marc-Olivier Méhu
Soutien technique & logistique : Manuel Goepfert

Contact : metmap@orbifly.com




SOURCES & CREDITS :

   NOAA       Earth
Advisory